Saint Amant, LA (70774)

10:10 AM CDT on October 21, 2014 (GMT -0500)
Gold Place Road | Change Station
CLOSE
Current Station
Personal Weather Station
Location: Saint Amant, LA
Elevation: 5 ft
Nearby Weather Stations

Elev 5 ft 30.26 °N, 90.84 °W | Updated 54 seconds ago

Clear
Clear
67.6 °F
Feels Like 67.6 °F
N
1.0
Wind Variable Wind from NE
Gusts 2.0 mph

Today
High -- | Low -- °F
--% Chance of Precip.
Yesterday
High -- | Low -- °F
Precip. -- in
7:09 AM 6:25 PM
Waning Crescent, 5% visible
Pressure 30.07 in
Visibility 10.0 miles
Clouds Clear
Dew Point 59 °F
Humidity 73%
Rainfall 0.00 in
Snow Depth Not available.
UV 0.0 out of 12
Pollen 3.60 out of 12
Air Quality Not available.
Flu Activity Sporadic
METAR KL38 211455Z AUTO 04005KT 10SM CLR 20/13 A3007 RMK AO2 T02040131

More Conditions Fewer Conditions

Pressure 30.07 in
Visibility 10.0 miles
Clouds Clear
Dew Point 59 °F
Humidity 73%
Rainfall 0.00 in
Snow Depth Not available.
UV 0.0 out of 12
Pollen 3.60 out of 12
Air Quality Not available.
Flu Activity Sporadic
METAR KL38 211455Z AUTO 04005KT 10SM CLR 20/13 A3007 RMK AO2 T02040131

More Conditions Fewer Conditions

10-Day Weather Forecast

Almanac

Astronomy

Oct. 21, 2014 Rise Set
Actual Time 7:09 AM CDT 6:25 PM CDT
Civil Twilight 6:44 AM CDT 6:50 PM CDT
Nautical Twilight 6:16 AM CDT 7:18 PM CDT
Astronomical Twilight 5:49 AM CDT 7:46 PM CDT
Moon 5:03 AM CDT 5:12 PM CDT
Length of Visible Light 12h 05m
Length of Day
11h 16m
Tomorrow will be 1m 42s shorter.
Waning Crescent, 5% of the Moon is Illuminated
Today
Waning Crescent
Oct 23
New
Oct 30
First Quarter
Nov 6
Full
Nov 14
Last Quarter

Today's Extremes

State Highs State Lows

Community

WunderPhotos

Upload Photos

1,763,684 photos uploaded!

WunderBlogs® & News

By Dr. Jeff Masters
Director of Meteorology, Weather Underground
By Kari Strenfel
Meteorologist, Weather Underground
By Christopher C. Burt
Weather Historian, Weather Underground
October 21, 2014
October 21, 2014
October 21, 2014

Nearby

Snow Depth

Station Depth Elevation
No new snow has been reported.

Earthquake Activity

City Distance Mag. Time & Date
No recent earthquake activity has been reported nearby.
Minimum magnitude displayed is 2.5.

Coastal Water Temperatures

Place Temperature
New Canal, LA 71.1 °F
Shell Beach, LA 68.0 °F
Bayou Gauche, LA 73.0 °F

Nearby Weather Stations